sensor_id;sensor_type;location;lat;lon;timestamp;temperature;humidity
20594;DHT22;10455;48.732;10.266;2023-04-03T00:03:03;2.10;99.90
20594;DHT22;10455;48.732;10.266;2023-04-03T00:08:05;2.30;99.90
20594;DHT22;10455;48.732;10.266;2023-04-03T00:13:10;2.10;99.90
20594;DHT22;10455;48.732;10.266;2023-04-03T00:18:12;2.30;99.90
20594;DHT22;10455;48.732;10.266;2023-04-03T00:23:14;2.30;99.90
20594;DHT22;10455;48.732;10.266;2023-04-03T00:28:18;2.30;99.90
20594;DHT22;10455;48.732;10.266;2023-04-03T00:33:20;2.10;99.90
20594;DHT22;10455;48.732;10.266;2023-04-03T00:38:22;2.10;99.90
20594;DHT22;10455;48.732;10.266;2023-04-03T00:43:26;1.90;99.90
20594;DHT22;10455;48.732;10.266;2023-04-03T00:48:30;1.90;99.90
20594;DHT22;10455;48.732;10.266;2023-04-03T00:53:37;1.90;99.90
20594;DHT22;10455;48.732;10.266;2023-04-03T00:58:44;2.00;99.90
20594;DHT22;10455;48.732;10.266;2023-04-03T01:03:48;2.20;99.90
20594;DHT22;10455;48.732;10.266;2023-04-03T01:08:51;2.00;99.90
20594;DHT22;10455;48.732;10.266;2023-04-03T01:13:54;1.90;99.90
20594;DHT22;10455;48.732;10.266;2023-04-03T01:18:57;1.80;99.90
20594;DHT22;10455;48.732;10.266;2023-04-03T01:24:11;2.20;99.90
20594;DHT22;10455;48.732;10.266;2023-04-03T01:29:18;2.30;99.90
20594;DHT22;10455;48.732;10.266;2023-04-03T01:34:22;1.90;99.90
20594;DHT22;10455;48.732;10.266;2023-04-03T01:39:25;2.00;99.90
20594;DHT22;10455;48.732;10.266;2023-04-03T01:44:27;2.00;99.90
20594;DHT22;10455;48.732;10.266;2023-04-03T01:49:30;1.70;99.90
20594;DHT22;10455;48.732;10.266;2023-04-03T01:54:32;1.70;99.90
20594;DHT22;10455;48.732;10.266;2023-04-03T01:59:34;1.80;99.90
20594;DHT22;10455;48.732;10.266;2023-04-03T02:04:37;1.80;99.90
20594;DHT22;10455;48.732;10.266;2023-04-03T02:09:39;1.70;99.90
20594;DHT22;10455;48.732;10.266;2023-04-03T02:14:41;1.70;99.90
20594;DHT22;10455;48.732;10.266;2023-04-03T02:19:44;1.70;99.90
20594;DHT22;10455;48.732;10.266;2023-04-03T02:24:46;1.80;99.90
20594;DHT22;10455;48.732;10.266;2023-04-03T02:29:48;1.80;99.90
20594;DHT22;10455;48.732;10.266;2023-04-03T02:34:52;1.70;99.90
20594;DHT22;10455;48.732;10.266;2023-04-03T02:39:53;1.80;99.90
20594;DHT22;10455;48.732;10.266;2023-04-03T02:44:55;1.80;99.90
20594;DHT22;10455;48.732;10.266;2023-04-03T02:49:59;1.70;99.90
20594;DHT22;10455;48.732;10.266;2023-04-03T02:55:00;1.60;99.90
20594;DHT22;10455;48.732;10.266;2023-04-03T03:00:03;1.70;99.90
20594;DHT22;10455;48.732;10.266;2023-04-03T03:05:08;1.70;99.90
20594;DHT22;10455;48.732;10.266;2023-04-03T03:10:10;1.60;99.90
20594;DHT22;10455;48.732;10.266;2023-04-03T03:15:12;1.60;99.90
20594;DHT22;10455;48.732;10.266;2023-04-03T03:20:15;1.60;99.90
20594;DHT22;10455;48.732;10.266;2023-04-03T03:25:17;1.70;99.90
20594;DHT22;10455;48.732;10.266;2023-04-03T03:30:19;1.60;99.90
20594;DHT22;10455;48.732;10.266;2023-04-03T03:35:22;1.60;99.90
20594;DHT22;10455;48.732;10.266;2023-04-03T03:40:25;1.50;99.90
20594;DHT22;10455;48.732;10.266;2023-04-03T03:45:26;1.60;99.90
20594;DHT22;10455;48.732;10.266;2023-04-03T03:50:30;1.40;99.90
20594;DHT22;10455;48.732;10.266;2023-04-03T03:55:32;1.30;99.90
20594;DHT22;10455;48.732;10.266;2023-04-03T04:00:34;1.30;99.90
20594;DHT22;10455;48.732;10.266;2023-04-03T04:05:37;1.20;99.90
20594;DHT22;10455;48.732;10.266;2023-04-03T04:10:39;1.40;99.90
20594;DHT22;10455;48.732;10.266;2023-04-03T04:15:41;1.20;99.90
20594;DHT22;10455;48.732;10.266;2023-04-03T04:20:46;1.10;99.90
20594;DHT22;10455;48.732;10.266;2023-04-03T04:25:48;0.70;99.90
20594;DHT22;10455;48.732;10.266;2023-04-03T04:30:50;0.80;99.90
20594;DHT22;10455;48.732;10.266;2023-04-03T04:35:54;0.80;99.90
20594;DHT22;10455;48.732;10.266;2023-04-03T04:40:56;0.80;99.90
20594;DHT22;10455;48.732;10.266;2023-04-03T04:51:03;0.80;99.90
20594;DHT22;10455;48.732;10.266;2023-04-03T04:56:05;0.70;99.90
20594;DHT22;10455;48.732;10.266;2023-04-03T05:01:09;0.50;99.90
20594;DHT22;10455;48.732;10.266;2023-04-03T05:06:12;0.40;99.90
20594;DHT22;10455;48.732;10.266;2023-04-03T05:11:14;0.40;99.90
20594;DHT22;10455;48.732;10.266;2023-04-03T05:16:16;0.50;99.90
20594;DHT22;10455;48.732;10.266;2023-04-03T05:21:19;0.40;99.90
20594;DHT22;10455;48.732;10.266;2023-04-03T05:26:23;0.60;99.90
20594;DHT22;10455;48.732;10.266;2023-04-03T05:31:26;0.70;99.90
20594;DHT22;10455;48.732;10.266;2023-04-03T05:36:31;0.80;99.90
20594;DHT22;10455;48.732;10.266;2023-04-03T05:41:33;1.00;99.90
20594;DHT22;10455;48.732;10.266;2023-04-03T05:46:35;1.20;99.90
20594;DHT22;10455;48.732;10.266;2023-04-03T05:51:39;1.10;99.90
20594;DHT22;10455;48.732;10.266;2023-04-03T05:56:41;1.00;99.90
20594;DHT22;10455;48.732;10.266;2023-04-03T06:01:44;1.20;99.90
20594;DHT22;10455;48.732;10.266;2023-04-03T06:06:49;1.50;99.90
20594;DHT22;10455;48.732;10.266;2023-04-03T06:11:52;1.50;99.90
20594;DHT22;10455;48.732;10.266;2023-04-03T06:16:53;1.80;99.90
20594;DHT22;10455;48.732;10.266;2023-04-03T06:21:57;1.60;99.90
20594;DHT22;10455;48.732;10.266;2023-04-03T06:26:59;1.40;99.90
20594;DHT22;10455;48.732;10.266;2023-04-03T06:32:01;1.50;99.90
20594;DHT22;10455;48.732;10.266;2023-04-03T06:37:04;1.50;99.90
20594;DHT22;10455;48.732;10.266;2023-04-03T06:42:06;1.80;99.90
20594;DHT22;10455;48.732;10.266;2023-04-03T06:47:10;1.80;99.90
20594;DHT22;10455;48.732;10.266;2023-04-03T06:52:14;2.00;99.90
20594;DHT22;10455;48.732;10.266;2023-04-03T06:57:16;2.30;99.90
20594;DHT22;10455;48.732;10.266;2023-04-03T07:02:19;2.60;99.90
20594;DHT22;10455;48.732;10.266;2023-04-03T07:07:22;2.70;99.90
20594;DHT22;10455;48.732;10.266;2023-04-03T07:12:24;2.90;99.90
20594;DHT22;10455;48.732;10.266;2023-04-03T07:17:26;3.00;99.90
20594;DHT22;10455;48.732;10.266;2023-04-03T07:22:30;3.30;99.90
20594;DHT22;10455;48.732;10.266;2023-04-03T07:27:32;3.30;99.90
20594;DHT22;10455;48.732;10.266;2023-04-03T07:32:34;3.00;99.90
20594;DHT22;10455;48.732;10.266;2023-04-03T07:37:37;3.00;99.90
20594;DHT22;10455;48.732;10.266;2023-04-03T07:42:39;3.30;99.90
20594;DHT22;10455;48.732;10.266;2023-04-03T07:47:41;2.60;99.90
20594;DHT22;10455;48.732;10.266;2023-04-03T07:52:45;2.80;99.90
20594;DHT22;10455;48.732;10.266;2023-04-03T07:57:47;2.90;99.90
20594;DHT22;10455;48.732;10.266;2023-04-03T08:02:49;3.00;99.90
20594;DHT22;10455;48.732;10.266;2023-04-03T08:07:53;2.80;99.90
20594;DHT22;10455;48.732;10.266;2023-04-03T08:12:55;3.00;99.90
20594;DHT22;10455;48.732;10.266;2023-04-03T08:17:57;3.70;99.90
20594;DHT22;10455;48.732;10.266;2023-04-03T08:23:01;4.10;99.90
20594;DHT22;10455;48.732;10.266;2023-04-03T08:28:03;3.90;99.90
20594;DHT22;10455;48.732;10.266;2023-04-03T08:33:04;3.30;99.90
20594;DHT22;10455;48.732;10.266;2023-04-03T08:38:08;3.50;99.90
20594;DHT22;10455;48.732;10.266;2023-04-03T08:43:24;4.00;99.90
20594;DHT22;10455;48.732;10.266;2023-04-03T08:48:33;4.00;99.90
20594;DHT22;10455;48.732;10.266;2023-04-03T08:53:40;4.10;99.90
20594;DHT22;10455;48.732;10.266;2023-04-03T09:03:46;4.10;99.90
20594;DHT22;10455;48.732;10.266;2023-04-03T09:08:53;4.00;99.90
20594;DHT22;10455;48.732;10.266;2023-04-03T09:14:01;4.70;99.90
20594;DHT22;10455;48.732;10.266;2023-04-03T09:19:11;5.10;99.90
20594;DHT22;10455;48.732;10.266;2023-04-03T09:24:18;6.00;99.90
20594;DHT22;10455;48.732;10.266;2023-04-03T09:29:23;5.60;99.90
20594;DHT22;10455;48.732;10.266;2023-04-03T09:34:27;6.20;99.90
20594;DHT22;10455;48.732;10.266;2023-04-03T09:39:31;6.40;99.90
20594;DHT22;10455;48.732;10.266;2023-04-03T09:44:35;5.90;99.90
20594;DHT22;10455;48.732;10.266;2023-04-03T09:49:37;4.90;99.90
20594;DHT22;10455;48.732;10.266;2023-04-03T09:54:40;4.70;99.90
20594;DHT22;10455;48.732;10.266;2023-04-03T09:59:46;4.50;99.90
20594;DHT22;10455;48.732;10.266;2023-04-03T10:04:48;4.50;99.90
20594;DHT22;10455;48.732;10.266;2023-04-03T10:10:01;4.30;99.90
20594;DHT22;10455;48.732;10.266;2023-04-03T10:15:12;3.90;99.90
20594;DHT22;10455;48.732;10.266;2023-04-03T10:20:27;3.70;99.90
20594;DHT22;10455;48.732;10.266;2023-04-03T10:25:40;4.50;99.90
20594;DHT22;10455;48.732;10.266;2023-04-03T10:30:50;4.90;99.90
20594;DHT22;10455;48.732;10.266;2023-04-03T10:36:06;5.20;99.90
20594;DHT22;10455;48.732;10.266;2023-04-03T10:41:16;4.10;99.90
20594;DHT22;10455;48.732;10.266;2023-04-03T10:46:23;3.80;99.90
20594;DHT22;10455;48.732;10.266;2023-04-03T10:51:31;4.00;99.90
20594;DHT22;10455;48.732;10.266;2023-04-03T10:56:39;3.70;99.90
20594;DHT22;10455;48.732;10.266;2023-04-03T11:01:45;3.80;99.90
20594;DHT22;10455;48.732;10.266;2023-04-03T11:06:50;4.30;99.90
20594;DHT22;10455;48.732;10.266;2023-04-03T11:12:00;4.30;99.90
20594;DHT22;10455;48.732;10.266;2023-04-03T11:17:19;4.80;99.90
20594;DHT22;10455;48.732;10.266;2023-04-03T11:58:36;5.20;99.90
20594;DHT22;10455;48.732;10.266;2023-04-03T12:22:08;5.30;99.90
20594;DHT22;10455;48.732;10.266;2023-04-03T12:27:28;6.30;99.90
20594;DHT22;10455;48.732;10.266;2023-04-03T12:32:46;6.30;99.90
20594;DHT22;10455;48.732;10.266;2023-04-03T12:44:08;5.50;99.90
20594;DHT22;10455;48.732;10.266;2023-04-03T12:49:22;6.30;99.90
20594;DHT22;10455;48.732;10.266;2023-04-03T12:54:32;6.00;99.90
20594;DHT22;10455;48.732;10.266;2023-04-03T12:59:36;6.30;99.90
20594;DHT22;10455;48.732;10.266;2023-04-03T13:11:09;5.70;99.90
20594;DHT22;10455;48.732;10.266;2023-04-03T13:16:55;5.50;99.90
20594;DHT22;10455;48.732;10.266;2023-04-03T13:22:01;6.00;99.90
20594;DHT22;10455;48.732;10.266;2023-04-03T13:27:07;6.00;99.90
20594;DHT22;10455;48.732;10.266;2023-04-03T13:44:40;5.40;99.90
20594;DHT22;10455;48.732;10.266;2023-04-03T14:01:54;5.70;99.90
20594;DHT22;10455;48.732;10.266;2023-04-03T14:07:06;5.80;99.90
20594;DHT22;10455;48.732;10.266;2023-04-03T14:12:26;8.40;97.80
20594;DHT22;10455;48.732;10.266;2023-04-03T14:17:30;7.90;97.60
20594;DHT22;10455;48.732;10.266;2023-04-03T14:22:33;7.10;98.40
20594;DHT22;10455;48.732;10.266;2023-04-03T14:27:37;6.70;99.30
20594;DHT22;10455;48.732;10.266;2023-04-03T14:32:41;6.50;99.80
20594;DHT22;10455;48.732;10.266;2023-04-03T14:37:43;6.00;99.90
20594;DHT22;10455;48.732;10.266;2023-04-03T14:42:45;4.90;99.90
20594;DHT22;10455;48.732;10.266;2023-04-03T14:47:53;5.30;99.90
20594;DHT22;10455;48.732;10.266;2023-04-03T14:53:11;5.30;99.90
20594;DHT22;10455;48.732;10.266;2023-04-03T14:58:16;6.00;99.30
20594;DHT22;10455;48.732;10.266;2023-04-03T15:03:21;6.90;98.50
20594;DHT22;10455;48.732;10.266;2023-04-03T15:08:25;10.40;94.80
20594;DHT22;10455;48.732;10.266;2023-04-03T15:13:29;7.30;95.10
20594;DHT22;10455;48.732;10.266;2023-04-03T15:30:29;5.10;99.90
20594;DHT22;10455;48.732;10.266;2023-04-03T15:35:52;5.30;99.90
20594;DHT22;10455;48.732;10.266;2023-04-03T15:53:25;4.50;98.40
20594;DHT22;10455;48.732;10.266;2023-04-03T15:58:27;5.30;97.90
20594;DHT22;10455;48.732;10.266;2023-04-03T16:03:30;6.10;97.50
20594;DHT22;10455;48.732;10.266;2023-04-03T16:08:33;6.20;96.20
20594;DHT22;10455;48.732;10.266;2023-04-03T16:18:39;5.60;98.00
20594;DHT22;10455;48.732;10.266;2023-04-03T16:23:42;5.10;98.70
20594;DHT22;10455;48.732;10.266;2023-04-03T16:28:44;4.90;98.40
20594;DHT22;10455;48.732;10.266;2023-04-03T16:33:47;4.90;99.20
20594;DHT22;10455;48.732;10.266;2023-04-03T16:38:50;4.90;99.90
20594;DHT22;10455;48.732;10.266;2023-04-03T16:43:52;6.30;99.70
20594;DHT22;10455;48.732;10.266;2023-04-03T16:48:54;5.70;98.40
20594;DHT22;10455;48.732;10.266;2023-04-03T16:53:57;4.80;99.80
20594;DHT22;10455;48.732;10.266;2023-04-03T16:58:59;4.80;99.50
20594;DHT22;10455;48.732;10.266;2023-04-03T17:04:01;4.50;99.90
20594;DHT22;10455;48.732;10.266;2023-04-03T17:09:04;4.20;99.90
20594;DHT22;10455;48.732;10.266;2023-04-03T17:14:06;4.30;99.90
20594;DHT22;10455;48.732;10.266;2023-04-03T17:19:08;4.30;99.90
20594;DHT22;10455;48.732;10.266;2023-04-03T17:24:14;4.50;99.90
20594;DHT22;10455;48.732;10.266;2023-04-03T17:29:16;4.00;99.90
20594;DHT22;10455;48.732;10.266;2023-04-03T17:34:18;4.00;99.90
20594;DHT22;10455;48.732;10.266;2023-04-03T17:39:21;4.00;99.90
20594;DHT22;10455;48.732;10.266;2023-04-03T17:44:23;3.90;99.90
20594;DHT22;10455;48.732;10.266;2023-04-03T17:50:16;3.70;99.90
20594;DHT22;10455;48.732;10.266;2023-04-03T19:50:43;2.40;99.90
20594;DHT22;10455;48.732;10.266;2023-04-03T19:56:39;2.10;99.90
20594;DHT22;10455;48.732;10.266;2023-04-03T20:02:31;2.00;99.90
20594;DHT22;10455;48.732;10.266;2023-04-03T20:18:26;1.90;99.90
20594;DHT22;10455;48.732;10.266;2023-04-03T20:40:30;1.80;99.90
20594;DHT22;10455;48.732;10.266;2023-04-03T20:45:33;1.90;99.90
20594;DHT22;10455;48.732;10.266;2023-04-03T20:50:35;1.70;99.90
20594;DHT22;10455;48.732;10.266;2023-04-03T20:55:38;1.70;99.90
20594;DHT22;10455;48.732;10.266;2023-04-03T21:00:40;1.50;99.90
20594;DHT22;10455;48.732;10.266;2023-04-03T21:05:42;1.60;99.90
20594;DHT22;10455;48.732;10.266;2023-04-03T21:21:28;1.20;99.90
20594;DHT22;10455;48.732;10.266;2023-04-03T21:26:31;0.90;99.90
20594;DHT22;10455;48.732;10.266;2023-04-03T21:31:54;1.00;99.90
20594;DHT22;10455;48.732;10.266;2023-04-03T21:37:02;0.90;99.90
20594;DHT22;10455;48.732;10.266;2023-04-03T21:42:04;0.60;99.90
20594;DHT22;10455;48.732;10.266;2023-04-03T21:47:07;0.50;99.90
20594;DHT22;10455;48.732;10.266;2023-04-03T21:52:10;0.40;99.90
20594;DHT22;10455;48.732;10.266;2023-04-03T21:57:12;0.30;99.90
20594;DHT22;10455;48.732;10.266;2023-04-03T22:02:14;0.10;99.90
20594;DHT22;10455;48.732;10.266;2023-04-03T22:07:17;0.00;99.90
20594;DHT22;10455;48.732;10.266;2023-04-03T22:12:19;-0.10;99.90
20594;DHT22;10455;48.732;10.266;2023-04-03T22:17:21;-0.30;99.90
20594;DHT22;10455;48.732;10.266;2023-04-03T22:22:24;-0.40;99.90
20594;DHT22;10455;48.732;10.266;2023-04-03T22:27:27;-0.50;99.90
20594;DHT22;10455;48.732;10.266;2023-04-03T22:32:28;-0.70;99.90
20594;DHT22;10455;48.732;10.266;2023-04-03T22:37:32;-0.80;99.90
20594;DHT22;10455;48.732;10.266;2023-04-03T22:42:33;-0.90;99.90
20594;DHT22;10455;48.732;10.266;2023-04-03T22:47:35;-1.10;99.90
20594;DHT22;10455;48.732;10.266;2023-04-03T22:52:39;-1.20;99.90
20594;DHT22;10455;48.732;10.266;2023-04-03T22:57:41;-1.40;99.90
20594;DHT22;10455;48.732;10.266;2023-04-03T23:02:46;-1.40;99.90
20594;DHT22;10455;48.732;10.266;2023-04-03T23:07:49;-1.60;99.90
20594;DHT22;10455;48.732;10.266;2023-04-03T23:17:54;-1.60;99.90
20594;DHT22;10455;48.732;10.266;2023-04-03T23:22:57;-1.70;99.90
20594;DHT22;10455;48.732;10.266;2023-04-03T23:27:59;-1.80;99.90
20594;DHT22;10455;48.732;10.266;2023-04-03T23:33:01;-1.90;99.90
20594;DHT22;10455;48.732;10.266;2023-04-03T23:38:04;-1.90;99.90
20594;DHT22;10455;48.732;10.266;2023-04-03T23:43:06;-2.00;99.90
20594;DHT22;10455;48.732;10.266;2023-04-03T23:48:08;-2.00;99.90
20594;DHT22;10455;48.732;10.266;2023-04-03T23:53:12;-2.00;99.90
20594;DHT22;10455;48.732;10.266;2023-04-03T23:58:13;-2.10;99.90
